Flinterbirka — PHFQ — position and weather

sailwx.info

Track history (hours):
 
Tides and Currents Weather Stations Pressure Air Temp Water Temp Dewpoint Dewpoint Depression Visibility Wind Speed Wind Dir Waves Ship Positions

Flinterbirka

Last reported at 2014-Nov-28 03:31 UTC. Time now 2014-Nov-28 04:09 UTC.
Position N 43°26' E 004°54'.

Length 83 m; draft 3.9 m.

Type: Cargo ship. MMSI: 246525000.

Date/timePositionNaut miles runAvg speedWind from/ knotsBaromVisibWave heightAir tempDewpointWater temp
2014-Nov-28 03:31N 43°26' E 004°54'0 0.0
2014-Nov-28 02:31N 43°26' E 004°54'0 0.0
2014-Nov-28 01:31N 43°26' E 004°54'0 0.0
2014-Nov-28 00:33N 43°26' E 004°54'0 0.0
2014-Nov-27 23:33N 43°26' E 004°54'0 0.0
2014-Nov-27 22:32N 43°26' E 004°54'0 0.0
2014-Nov-27 21:32N 43°26' E 004°54'0 0.0
2014-Nov-27 20:31N 43°26' E 004°54'0 0.0
2014-Nov-27 19:31N 43°26' E 004°54'0 0.0
2014-Nov-27 18:31N 43°26' E 004°54'0 0.0
2014-Nov-27 17:33N 43°26' E 004°54'0 0.0
2014-Nov-27 16:33N 43°26' E 004°54'0 0.0
2014-Nov-27 15:33N 43°26' E 004°54'0 0.0
2014-Nov-27 14:33N 43°26' E 004°54'0 0.0
2014-Nov-27 13:33N 43°26' E 004°54'0 0.0
2014-Nov-27 12:33N 43°26' E 004°54'8 8.0
2014-Nov-27 11:33N 43°19' E 004°59'1110.0
2014-Nov-27 10:30N 43°08' E 005°01'3410.2
2014-Nov-27 07:09N 42°41' E 004°33'610.3
2014-Nov-27 06:33N 42°36' E 004°28'1110.7
2014-Nov-27 05:33N 42°27' E 004°19'1110.7
2014-Nov-27 04:33N 42°19' E 004°10'1110.8
2014-Nov-27 03:33N 42°10' E 004°02'1110.8
2014-Nov-27 02:31N 42°02' E 003°52'1010.8
2014-Nov-27 01:33N 41°53' E 003°44'1110.6
2014-Nov-27 00:34N 41°48' E 003°32'2210.5
2014-Nov-26 22:31N 41°38' E 003°06'1010.1
2014-Nov-26 21:30N 41°33' E 002°54'1010.6
2014-Nov-26 20:33N 41°29' E 002°42'  
2014-Nov-24 12:28N 40°55' E 001°58'8 9.0
2014-Nov-24 11:32N 40°47' E 001°53'9 9.0
2014-Nov-24 10:33N 40°39' E 001°48'9 9.0
2014-Nov-24 09:34N 40°31' E 001°42'9 8.9
2014-Nov-24 08:33N 40°23' E 001°37'9 9.2
2014-Nov-24 07:33N 40°15' E 001°31'9 9.1
2014-Nov-24 06:33N 40°07' E 001°26'9 9.3
2014-Nov-24 05:33N 39°59' E 001°20'10 9.5
2014-Nov-24 04:33N 39°50' E 001°14'138 9.6
2014-Nov-23 14:12N 37°52' W 000°15'6 9.4
2014-Nov-23 13:33N 37°46' W 000°19'9 9.2
2014-Nov-23 12:33N 37°39' W 000°26'249 8.9
2014-Nov-22 08:33N 36°03' W 005°13'9 8.8
2014-Nov-22 07:32N 36°07' W 005°23'2 0.1
2014-Nov-21 12:33N 36°06' W 005°21'6 5.4
2014-Nov-21 11:31N 36°05' W 005°14'3 3.0
2014-Nov-21 10:33N 36°04' W 005°17'2 2.1
2014-Nov-21 09:25N 36°04' W 005°14'2 2.1
2014-Nov-21 08:33N 36°04' W 005°17'5 5.0
2014-Nov-21 07:33N 36°00' W 005°12'4 4.5
2014-Nov-21 06:33N 35°59' W 005°17'10 9.6
2014-Nov-21 05:33N 35°56' W 005°29'  
2014-Nov-18 18:19N 36°02' W 005°25'  
Track history (hours):
 
Tides and Currents Weather Stations Pressure Air Temp Water Temp Dewpoint Dewpoint Depression Visibility Wind Speed Wind Dir Waves Ship Positions

Flinterbirka

Last reported at 2014-Nov-28 03:31 UTC. Time now 2014-Nov-28 04:09 UTC.
Position N 43°26' E 004°54'.

Length 83 m; draft 3.9 m.

Type: Cargo ship. MMSI: 246525000.

Date/timePositionNaut miles runAvg speedWind from/ knotsBaromVisibWave heightAir tempDewpointWater temp
2014-Nov-28 03:31N 43°26' E 004°54'0 0.0
2014-Nov-28 02:31N 43°26' E 004°54'0 0.0
2014-Nov-28 01:31N 43°26' E 004°54'0 0.0
2014-Nov-28 00:33N 43°26' E 004°54'0 0.0
2014-Nov-27 23:33N 43°26' E 004°54'0 0.0
2014-Nov-27 22:32N 43°26' E 004°54'0 0.0
2014-Nov-27 21:32N 43°26' E 004°54'0 0.0
2014-Nov-27 20:31N 43°26' E 004°54'0 0.0
2014-Nov-27 19:31N 43°26' E 004°54'0 0.0
2014-Nov-27 18:31N 43°26' E 004°54'0 0.0
2014-Nov-27 17:33N 43°26' E 004°54'0 0.0
2014-Nov-27 16:33N 43°26' E 004°54'0 0.0
2014-Nov-27 15:33N 43°26' E 004°54'0 0.0
2014-Nov-27 14:33N 43°26' E 004°54'0 0.0
2014-Nov-27 13:33N 43°26' E 004°54'0 0.0
2014-Nov-27 12:33N 43°26' E 004°54'8 8.0
2014-Nov-27 11:33N 43°19' E 004°59'1110.0
2014-Nov-27 10:30N 43°08' E 005°01'3410.2
2014-Nov-27 07:09N 42°41' E 004°33'610.3
2014-Nov-27 06:33N 42°36' E 004°28'1110.7
2014-Nov-27 05:33N 42°27' E 004°19'1110.7
2014-Nov-27 04:33N 42°19' E 004°10'1110.8
2014-Nov-27 03:33N 42°10' E 004°02'1110.8
2014-Nov-27 02:31N 42°02' E 003°52'1010.8
2014-Nov-27 01:33N 41°53' E 003°44'1110.6
2014-Nov-27 00:34N 41°48' E 003°32'2210.5
2014-Nov-26 22:31N 41°38' E 003°06'1010.1
2014-Nov-26 21:30N 41°33' E 002°54'1010.6
2014-Nov-26 20:33N 41°29' E 002°42'  
2014-Nov-24 12:28N 40°55' E 001°58'8 9.0
2014-Nov-24 11:32N 40°47' E 001°53'9 9.0
2014-Nov-24 10:33N 40°39' E 001°48'9 9.0
2014-Nov-24 09:34N 40°31' E 001°42'9 8.9
2014-Nov-24 08:33N 40°23' E 001°37'9 9.2
2014-Nov-24 07:33N 40°15' E 001°31'9 9.1
2014-Nov-24 06:33N 40°07' E 001°26'9 9.3
2014-Nov-24 05:33N 39°59' E 001°20'10 9.5
2014-Nov-24 04:33N 39°50' E 001°14'138 9.6
2014-Nov-23 14:12N 37°52' W 000°15'6 9.4
2014-Nov-23 13:33N 37°46' W 000°19'9 9.2
2014-Nov-23 12:33N 37°39' W 000°26'249 8.9
2014-Nov-22 08:33N 36°03' W 005°13'9 8.8
2014-Nov-22 07:32N 36°07' W 005°23'2 0.1
2014-Nov-21 12:33N 36°06' W 005°21'6 5.4
2014-Nov-21 11:31N 36°05' W 005°14'3 3.0
2014-Nov-21 10:33N 36°04' W 005°17'2 2.1
2014-Nov-21 09:25N 36°04' W 005°14'2 2.1
2014-Nov-21 08:33N 36°04' W 005°17'5 5.0
2014-Nov-21 07:33N 36°00' W 005°12'4 4.5
2014-Nov-21 06:33N 35°59' W 005°17'10 9.6
2014-Nov-21 05:33N 35°56' W 005°29'  
2014-Nov-18 18:19N 36°02' W 005°25'  

Dump ship's entire track history